sensor_id;sensor_type;location;lat;lon;timestamp;pressure;altitude;pressure_sealevel;temperature;humidity
47280;BME280;34064;44.942;0.008;2023-09-19T00:00:38;98837.00;;;20.88;65.05
47280;BME280;34064;44.942;0.008;2023-09-19T00:03:06;98841.94;;;20.84;65.29
47280;BME280;34064;44.942;0.008;2023-09-19T00:05:37;98845.03;;;20.81;65.21
47280;BME280;34064;44.942;0.008;2023-09-19T00:08:10;98845.56;;;20.77;65.25
47280;BME280;34064;44.942;0.008;2023-09-19T00:10:39;98848.44;;;20.75;65.03
47280;BME280;34064;44.942;0.008;2023-09-19T00:16:29;98859.47;;;20.65;65.29
47280;BME280;34064;44.942;0.008;2023-09-19T00:18:55;98853.59;;;20.62;65.24
47280;BME280;34064;44.942;0.008;2023-09-19T00:21:21;98859.81;;;20.62;65.14
47280;BME280;34064;44.942;0.008;2023-09-19T00:23:48;98861.38;;;20.56;65.22
47280;BME280;34064;44.942;0.008;2023-09-19T00:26:15;98860.06;;;20.52;65.23
47280;BME280;34064;44.942;0.008;2023-09-19T00:28:43;98865.47;;;20.52;65.03
47280;BME280;34064;44.942;0.008;2023-09-19T00:31:10;98866.50;;;20.51;65.28
47280;BME280;34064;44.942;0.008;2023-09-19T00:33:36;98860.06;;;20.52;65.24
47280;BME280;34064;44.942;0.008;2023-09-19T00:36:02;98865.47;;;20.52;65.29
47280;BME280;34064;44.942;0.008;2023-09-19T00:38:31;98855.69;;;20.51;65.49
47280;BME280;34064;44.942;0.008;2023-09-19T00:40:58;98861.91;;;20.52;65.42
47280;BME280;34064;44.942;0.008;2023-09-19T00:43:26;98860.91;;;20.53;65.27
47280;BME280;34064;44.942;0.008;2023-09-19T00:45:55;98861.75;;;20.53;65.34
47280;BME280;34064;44.942;0.008;2023-09-19T00:48:22;98869.19;;;20.51;65.37
47280;BME280;34064;44.942;0.008;2023-09-19T00:50:49;98874.59;;;20.51;65.40
47280;BME280;34064;44.942;0.008;2023-09-19T00:53:23;98875.94;;;20.47;65.26
47280;BME280;34064;44.942;0.008;2023-09-19T00:55:52;98886.06;;;20.45;65.37
47280;BME280;34064;44.942;0.008;2023-09-19T00:58:19;98883.75;;;20.42;65.37
47280;BME280;34064;44.942;0.008;2023-09-19T01:00:50;98882.41;;;20.38;65.17
47280;BME280;34064;44.942;0.008;2023-09-19T01:03:17;98883.81;;;20.34;65.30
47280;BME280;34064;44.942;0.008;2023-09-19T01:05:44;98888.72;;;20.30;65.48
47280;BME280;34064;44.942;0.008;2023-09-19T01:08:11;98888.72;;;20.30;65.11
47280;BME280;34064;44.942;0.008;2023-09-19T01:10:43;98886.19;;;20.29;65.21
47280;BME280;34064;44.942;0.008;2023-09-19T01:21:26;98894.34;;;20.20;65.32
47280;BME280;34064;44.942;0.008;2023-09-19T01:29:42;98897.69;;;20.22;65.47
47280;BME280;34064;44.942;0.008;2023-09-19T01:32:11;98888.22;;;20.26;65.13
47280;BME280;34064;44.942;0.008;2023-09-19T01:34:45;98888.72;;;20.30;65.39
47280;BME280;34064;44.942;0.008;2023-09-19T01:37:19;98878.41;;;20.34;65.19
47280;BME280;34064;44.942;0.008;2023-09-19T01:39:56;98878.41;;;20.34;65.27
47280;BME280;34064;44.942;0.008;2023-09-19T01:45:19;98883.44;;;20.37;65.42
47280;BME280;34064;44.942;0.008;2023-09-19T01:51:00;98883.75;;;20.42;65.23
47280;BME280;34064;44.942;0.008;2023-09-19T01:53:53;98881.72;;;20.44;65.27
47280;BME280;34064;44.942;0.008;2023-09-19T01:56:49;98878.66;;;20.47;65.44
47280;BME280;34064;44.942;0.008;2023-09-19T01:59:21;98877.47;;;20.50;65.37
47280;BME280;34064;44.942;0.008;2023-09-19T02:01:51;98875.59;;;20.50;65.32
47280;BME280;34064;44.942;0.008;2023-09-19T02:04:18;98879.31;;;20.49;65.40
47280;BME280;34064;44.942;0.008;2023-09-19T02:06:44;98881.00;;;20.50;65.50
47280;BME280;34064;44.942;0.008;2023-09-19T02:09:14;98881.66;;;20.52;65.24
47280;BME280;34064;44.942;0.008;2023-09-19T02:11:41;98872.72;;;20.52;65.38
47280;BME280;34064;44.942;0.008;2023-09-19T02:14:08;98871.69;;;20.53;65.74
47280;BME280;34064;44.942;0.008;2023-09-19T02:16:35;98869.47;;;20.56;65.31
47280;BME280;34064;44.942;0.008;2023-09-19T02:19:01;98867.63;;;20.57;65.50
47280;BME280;34064;44.942;0.008;2023-09-19T02:21:32;98867.44;;;20.58;65.13
47280;BME280;34064;44.942;0.008;2023-09-19T02:23:58;98859.34;;;20.58;65.48
47280;BME280;34064;44.942;0.008;2023-09-19T02:26:25;98867.44;;;20.58;65.69
47280;BME280;34064;44.942;0.008;2023-09-19T02:28:53;98857.50;;;20.59;65.69
47280;BME280;34064;44.942;0.008;2023-09-19T02:31:20;98866.41;;;20.60;65.55
47280;BME280;34064;44.942;0.008;2023-09-19T02:33:46;98869.13;;;20.60;65.55
47280;BME280;34064;44.942;0.008;2023-09-19T02:36:12;98876.53;;;20.57;65.54
47280;BME280;34064;44.942;0.008;2023-09-19T02:38:43;98871.53;;;20.54;65.57
47280;BME280;34064;44.942;0.008;2023-09-19T02:41:09;98871.88;;;20.51;65.76
47280;BME280;34064;44.942;0.008;2023-09-19T02:43:36;98881.19;;;20.49;65.66
47280;BME280;34064;44.942;0.008;2023-09-19T02:46:03;98884.22;;;20.46;65.78
47280;BME280;34064;44.942;0.008;2023-09-19T02:48:29;98889.81;;;20.44;65.92
47280;BME280;34064;44.942;0.008;2023-09-19T02:50:55;98884.78;;;20.41;65.94
47280;BME280;34064;44.942;0.008;2023-09-19T02:53:22;98882.25;;;20.39;65.63
47280;BME280;34064;44.942;0.008;2023-09-19T02:55:50;98878.03;;;20.37;65.68
47280;BME280;34064;44.942;0.008;2023-09-19T02:58:20;98880.94;;;20.35;65.64
47280;BME280;34064;44.942;0.008;2023-09-19T03:00:46;98880.09;;;20.35;65.79
47280;BME280;34064;44.942;0.008;2023-09-19T03:03:13;98877.41;;;20.35;65.92
47280;BME280;34064;44.942;0.008;2023-09-19T03:05:42;98876.34;;;20.36;65.85
47280;BME280;34064;44.942;0.008;2023-09-19T03:08:13;98876.34;;;20.36;65.95
47280;BME280;34064;44.942;0.008;2023-09-19T03:10:45;98875.34;;;20.37;65.72
47280;BME280;34064;44.942;0.008;2023-09-19T03:13:12;98876.34;;;20.36;66.04
47280;BME280;34064;44.942;0.008;2023-09-19T03:15:42;98867.25;;;20.37;65.97
47280;BME280;34064;44.942;0.008;2023-09-19T03:18:12;98867.25;;;20.37;65.92
47280;BME280;34064;44.942;0.008;2023-09-19T03:20:39;98867.09;;;20.38;65.76
47280;BME280;34064;44.942;0.008;2023-09-19T03:23:05;98859.00;;;20.38;65.80
47280;BME280;34064;44.942;0.008;2023-09-19T03:25:34;98863.38;;;20.39;66.12
47280;BME280;34064;44.942;0.008;2023-09-19T03:28:02;98868.59;;;20.41;66.08
47280;BME280;34064;44.942;0.008;2023-09-19T03:30:32;98873.97;;;20.41;65.98
47280;BME280;34064;44.942;0.008;2023-09-19T03:32:59;98869.41;;;20.41;66.06
47280;BME280;34064;44.942;0.008;2023-09-19T03:35:26;98872.28;;;20.40;65.77
47280;BME280;34064;44.942;0.008;2023-09-19T03:37:53;98864.22;;;20.40;65.98
47280;BME280;34064;44.942;0.008;2023-09-19T03:40:19;98867.91;;;20.39;65.81
47280;BME280;34064;44.942;0.008;2023-09-19T03:42:47;98861.84;;;20.37;65.91
47280;BME280;34064;44.942;0.008;2023-09-19T03:45:14;98861.03;;;20.36;65.90
47280;BME280;34064;44.942;0.008;2023-09-19T03:47:41;98870.97;;;20.36;65.92
47280;BME280;34064;44.942;0.008;2023-09-19T03:50:08;98869.31;;;20.35;65.79
47280;BME280;34064;44.942;0.008;2023-09-19T03:52:36;98868.66;;;20.33;66.10
47280;BME280;34064;44.942;0.008;2023-09-19T03:55:03;98869.66;;;20.32;65.95
47280;BME280;34064;44.942;0.008;2023-09-19T03:57:30;98877.75;;;20.32;66.18
47280;BME280;34064;44.942;0.008;2023-09-19T03:59:56;98874.19;;;20.31;66.17
47280;BME280;34064;44.942;0.008;2023-09-19T04:02:23;98872.34;;;20.32;65.83
47280;BME280;34064;44.942;0.008;2023-09-19T04:04:51;98875.06;;;20.32;65.88
47280;BME280;34064;44.942;0.008;2023-09-19T04:07:18;98867.97;;;20.31;65.75
47280;BME280;34064;44.942;0.008;2023-09-19T04:09:48;98873.38;;;20.31;65.88
47280;BME280;34064;44.942;0.008;2023-09-19T04:12:15;98866.28;;;20.30;65.85
47280;BME280;34064;44.942;0.008;2023-09-19T04:14:43;98861.91;;;20.29;66.16
47280;BME280;34064;44.942;0.008;2023-09-19T04:17:09;98859.22;;;20.29;65.82
47280;BME280;34064;44.942;0.008;2023-09-19T04:19:37;98865.47;;;20.29;66.05
47280;BME280;34064;44.942;0.008;2023-09-19T04:22:03;98860.22;;;20.27;65.91
47280;BME280;34064;44.942;0.008;2023-09-19T04:24:30;98859.22;;;20.29;65.93
47280;BME280;34064;44.942;0.008;2023-09-19T04:26:58;98862.94;;;20.27;65.92
47280;BME280;34064;44.942;0.008;2023-09-19T04:29:28;98863.78;;;20.28;65.72
47280;BME280;34064;44.942;0.008;2023-09-19T04:31:55;98857.53;;;20.27;65.80
47280;BME280;34064;44.942;0.008;2023-09-19T04:34:23;98858.41;;;20.28;65.93
47280;BME280;34064;44.942;0.008;2023-09-19T04:36:50;98856.53;;;20.29;65.84
47280;BME280;34064;44.942;0.008;2023-09-19T04:39:16;98863.94;;;20.26;65.80
47280;BME280;34064;44.942;0.008;2023-09-19T04:41:43;98856.22;;;20.23;65.82
47280;BME280;34064;44.942;0.008;2023-09-19T04:44:11;98865.34;;;20.22;65.65
47280;BME280;34064;44.942;0.008;2023-09-19T04:46:38;98863.84;;;20.20;65.42
47280;BME280;34064;44.942;0.008;2023-09-19T04:49:05;98866.88;;;20.17;65.77
47280;BME280;34064;44.942;0.008;2023-09-19T04:51:31;98863.72;;;20.13;65.66
47280;BME280;34064;44.942;0.008;2023-09-19T04:54:00;98863.38;;;20.08;65.67
47280;BME280;34064;44.942;0.008;2023-09-19T04:56:27;98863.75;;;20.05;65.65
47280;BME280;34064;44.942;0.008;2023-09-19T04:58:54;98867.66;;;20.02;65.65
47280;BME280;34064;44.942;0.008;2023-09-19T05:01:21;98866.13;;;20.00;65.81
47280;BME280;34064;44.942;0.008;2023-09-19T05:03:50;98861.13;;;19.97;65.73
47280;BME280;34064;44.942;0.008;2023-09-19T05:06:19;98875.59;;;19.95;65.46
47280;BME280;34064;44.942;0.008;2023-09-19T05:08:50;98881.69;;;19.89;65.61
47280;BME280;34064;44.942;0.008;2023-09-19T05:11:20;98882.19;;;19.85;65.47
47280;BME280;34064;44.942;0.008;2023-09-19T05:13:48;98888.63;;;19.84;65.46
47280;BME280;34064;44.942;0.008;2023-09-19T05:16:19;98893.50;;;19.80;65.29
47280;BME280;34064;44.942;0.008;2023-09-19T05:18:45;98889.47;;;19.76;65.47
47280;BME280;34064;44.942;0.008;2023-09-19T05:21:11;98892.31;;;19.74;65.49
47280;BME280;34064;44.942;0.008;2023-09-19T05:23:39;98891.69;;;19.72;65.32
47280;BME280;34064;44.942;0.008;2023-09-19T05:26:05;98901.13;;;19.68;65.33
47280;BME280;34064;44.942;0.008;2023-09-19T05:28:31;98901.47;;;19.65;65.51
47280;BME280;34064;44.942;0.008;2023-09-19T05:31:03;98899.28;;;19.60;65.38
47280;BME280;34064;44.942;0.008;2023-09-19T05:33:29;98904.03;;;19.58;65.34
47280;BME280;34064;44.942;0.008;2023-09-19T05:35:57;98899.66;;;19.57;65.32
47280;BME280;34064;44.942;0.008;2023-09-19T05:38:24;98894.25;;;19.57;65.21
47280;BME280;34064;44.942;0.008;2023-09-19T05:40:52;98907.06;;;19.55;65.02
47280;BME280;34064;44.942;0.008;2023-09-19T05:43:19;98914.47;;;19.53;65.07
47280;BME280;34064;44.942;0.008;2023-09-19T05:45:45;98910.59;;;19.47;65.25
47280;BME280;34064;44.942;0.008;2023-09-19T05:48:13;98910.78;;;19.46;64.99
47280;BME280;34064;44.942;0.008;2023-09-19T05:50:40;98910.97;;;19.44;64.96
47280;BME280;34064;44.942;0.008;2023-09-19T05:53:07;98913.81;;;19.43;65.00
47280;BME280;34064;44.942;0.008;2023-09-19T05:55:34;98917.53;;;19.42;64.88
47280;BME280;34064;44.942;0.008;2023-09-19T05:58:01;98917.38;;;19.43;64.97
47280;BME280;34064;44.942;0.008;2023-09-19T06:00:29;98922.56;;;19.45;65.10
47280;BME280;34064;44.942;0.008;2023-09-19T06:02:59;98914.31;;;19.46;64.96
47280;BME280;34064;44.942;0.008;2023-09-19T06:05:28;98916.84;;;19.48;64.99
47280;BME280;34064;44.942;0.008;2023-09-19T06:07:58;98926.78;;;19.47;64.89
47280;BME280;34064;44.942;0.008;2023-09-19T06:10:26;98927.97;;;19.45;64.98
47280;BME280;34064;44.942;0.008;2023-09-19T06:12:54;98927.47;;;19.41;65.12
47280;BME280;34064;44.942;0.008;2023-09-19T06:15:21;98929.97;;;19.43;65.21
47280;BME280;34064;44.942;0.008;2023-09-19T06:17:52;98932.84;;;19.41;64.97
47280;BME280;34064;44.942;0.008;2023-09-19T06:20:23;98926.63;;;19.41;65.13
47280;BME280;34064;44.942;0.008;2023-09-19T06:22:50;98928.66;;;19.39;65.19
47280;BME280;34064;44.942;0.008;2023-09-19T06:25:18;98936.88;;;19.37;65.27
47280;BME280;34064;44.942;0.008;2023-09-19T06:27:48;98931.50;;;19.37;65.21
47280;BME280;34064;44.942;0.008;2023-09-19T06:30:18;98935.72;;;19.40;65.03
47280;BME280;34064;44.942;0.008;2023-09-19T06:32:45;98939.06;;;19.42;65.16
47280;BME280;34064;44.942;0.008;2023-09-19T06:35:13;98937.91;;;19.44;65.15
47280;BME280;34064;44.942;0.008;2023-09-19T06:37:40;98937.72;;;19.46;65.14
47280;BME280;34064;44.942;0.008;2023-09-19T06:40:10;98938.75;;;19.45;65.23
47280;BME280;34064;44.942;0.008;2023-09-19T06:42:49;98940.41;;;19.46;64.94
47280;BME280;34064;44.942;0.008;2023-09-19T06:45:16;98942.94;;;19.47;65.17
47280;BME280;34064;44.942;0.008;2023-09-19T06:47:50;98935.19;;;19.53;65.13
47280;BME280;34064;44.942;0.008;2023-09-19T06:50:21;98941.75;;;19.58;65.10
47280;BME280;34064;44.942;0.008;2023-09-19T06:52:49;98934.97;;;19.62;65.28
47280;BME280;34064;44.942;0.008;2023-09-19T06:55:20;98934.66;;;19.66;65.16
47280;BME280;34064;44.942;0.008;2023-09-19T06:57:47;98930.56;;;19.70;65.28
47280;BME280;34064;44.942;0.008;2023-09-19T07:00:14;98928.22;;;19.75;65.31
47280;BME280;34064;44.942;0.008;2023-09-19T07:03:07;98931.41;;;19.78;65.30
47280;BME280;34064;44.942;0.008;2023-09-19T07:05:38;98934.59;;;19.82;65.15
47280;BME280;34064;44.942;0.008;2023-09-19T07:08:06;98941.34;;;19.86;65.24
47280;BME280;34064;44.942;0.008;2023-09-19T07:10:33;98929.53;;;19.95;65.41
47280;BME280;34064;44.942;0.008;2023-09-19T07:13:00;98929.69;;;19.94;65.55
47280;BME280;34064;44.942;0.008;2023-09-19T07:15:28;98933.72;;;19.98;65.86
47280;BME280;34064;44.942;0.008;2023-09-19T07:17:55;98931.22;;;19.97;65.74
47280;BME280;34064;44.942;0.008;2023-09-19T07:20:23;98933.53;;;20.00;65.93
47280;BME280;34064;44.942;0.008;2023-09-19T07:22:52;98933.69;;;20.06;65.75
47280;BME280;34064;44.942;0.008;2023-09-19T07:25:21;98928.09;;;20.16;66.36
47280;BME280;34064;44.942;0.008;2023-09-19T07:27:47;98930.06;;;20.22;65.94
47280;BME280;34064;44.942;0.008;2023-09-19T07:30:14;98927.66;;;20.27;65.97
47280;BME280;34064;44.942;0.008;2023-09-19T07:32:42;98926.97;;;20.34;65.79
47280;BME280;34064;44.942;0.008;2023-09-19T07:35:08;98918.34;;;20.38;65.91
47280;BME280;34064;44.942;0.008;2023-09-19T07:37:35;98918.16;;;20.40;66.27
47280;BME280;34064;44.942;0.008;2023-09-19T07:40:05;98925.22;;;20.41;66.07
47280;BME280;34064;44.942;0.008;2023-09-19T07:42:36;98926.91;;;20.42;66.29
47280;BME280;34064;44.942;0.008;2023-09-19T07:45:05;98932.59;;;20.47;66.03
47280;BME280;34064;44.942;0.008;2023-09-19T07:47:32;98923.81;;;20.53;65.71
47280;BME280;34064;44.942;0.008;2023-09-19T07:49:59;98922.06;;;20.61;65.80
47280;BME280;34064;44.942;0.008;2023-09-19T07:52:28;98907.84;;;20.67;65.69
47280;BME280;34064;44.942;0.008;2023-09-19T07:54:55;98915.75;;;20.77;65.88
47280;BME280;34064;44.942;0.008;2023-09-19T07:57:23;98914.19;;;20.82;66.02
47280;BME280;34064;44.942;0.008;2023-09-19T07:59:49;98916.34;;;20.87;65.85
47280;BME280;34064;44.942;0.008;2023-09-19T08:02:16;98923.50;;;20.95;65.88
47280;BME280;34064;44.942;0.008;2023-09-19T08:04:43;98911.81;;;21.02;65.58
47280;BME280;34064;44.942;0.008;2023-09-19T08:07:12;98903.94;;;21.16;65.67
47280;BME280;34064;44.942;0.008;2023-09-19T08:09:39;98897.91;;;21.29;65.23
47280;BME280;34064;44.942;0.008;2023-09-19T08:12:09;98902.56;;;21.35;65.31
47280;BME280;34064;44.942;0.008;2023-09-19T08:14:36;98908.22;;;21.40;65.19
47280;BME280;34064;44.942;0.008;2023-09-19T08:17:07;98908.63;;;21.52;65.02
47280;BME280;34064;44.942;0.008;2023-09-19T08:19:36;98903.63;;;21.64;65.12
47280;BME280;34064;44.942;0.008;2023-09-19T08:22:08;98904.34;;;21.73;64.93
47280;BME280;34064;44.942;0.008;2023-09-19T08:24:36;98903.41;;;21.80;64.97
47280;BME280;34064;44.942;0.008;2023-09-19T08:27:04;98909.00;;;21.79;64.75
47280;BME280;34064;44.942;0.008;2023-09-19T08:29:34;98919.16;;;21.77;64.96
47280;BME280;34064;44.942;0.008;2023-09-19T08:32:01;98916.75;;;21.82;64.64
47280;BME280;34064;44.942;0.008;2023-09-19T08:34:27;98906.66;;;21.91;64.90
47280;BME280;34064;44.942;0.008;2023-09-19T08:36:55;98903.03;;;21.99;64.80
47280;BME280;34064;44.942;0.008;2023-09-19T08:39:25;98899.34;;;22.06;64.77
47280;BME280;34064;44.942;0.008;2023-09-19T08:41:58;98899.44;;;22.13;64.60
47280;BME280;34064;44.942;0.008;2023-09-19T08:44:28;98894.13;;;22.20;64.83
47280;BME280;34064;44.942;0.008;2023-09-19T08:47:15;98895.88;;;22.27;64.66
47280;BME280;34064;44.942;0.008;2023-09-19T08:50:00;98890.91;;;22.31;64.69
47280;BME280;34064;44.942;0.008;2023-09-19T08:52:37;98887.81;;;22.34;64.55
47280;BME280;34064;44.942;0.008;2023-09-19T08:55:08;98893.16;;;22.42;64.22
47280;BME280;34064;44.942;0.008;2023-09-19T08:57:36;98896.75;;;22.50;64.38
47280;BME280;34064;44.942;0.008;2023-09-19T09:00:08;98882.88;;;22.59;64.04
47280;BME280;34064;44.942;0.008;2023-09-19T09:02:39;98884.25;;;22.70;64.06
47280;BME280;34064;44.942;0.008;2023-09-19T09:05:09;98885.59;;;22.81;63.99
47280;BME280;34064;44.942;0.008;2023-09-19T09:07:37;98883.13;;;22.86;63.46
47280;BME280;34064;44.942;0.008;2023-09-19T09:10:04;98887.56;;;22.94;63.62
47280;BME280;34064;44.942;0.008;2023-09-19T09:12:31;98890.88;;;22.89;63.63
47280;BME280;34064;44.942;0.008;2023-09-19T09:14:57;98897.25;;;22.82;63.86
47280;BME280;34064;44.942;0.008;2023-09-19T09:17:27;98894.81;;;22.87;63.46
47280;BME280;34064;44.942;0.008;2023-09-19T09:19:54;98886.16;;;22.98;63.15
47280;BME280;34064;44.942;0.008;2023-09-19T09:22:20;98885.41;;;23.11;63.01
47280;BME280;34064;44.942;0.008;2023-09-19T09:24:54;98881.75;;;23.19;62.67
47280;BME280;34064;44.942;0.008;2023-09-19T09:27:24;98879.13;;;23.32;62.44
47280;BME280;34064;44.942;0.008;2023-09-19T09:29:51;98878.97;;;23.41;62.25
47280;BME280;34064;44.942;0.008;2023-09-19T09:32:28;98877.38;;;23.53;61.64
47280;BME280;34064;44.942;0.008;2023-09-19T09:35:07;98872.84;;;23.67;61.12
47280;BME280;34064;44.942;0.008;2023-09-19T09:37:35;98868.72;;;23.78;60.20
47280;BME280;34064;44.942;0.008;2023-09-19T09:40:05;98871.69;;;23.83;60.51
47280;BME280;34064;44.942;0.008;2023-09-19T09:42:52;98875.00;;;23.78;60.82
47280;BME280;34064;44.942;0.008;2023-09-19T09:45:24;98870.03;;;23.89;60.16
47280;BME280;34064;44.942;0.008;2023-09-19T09:48:00;98868.00;;;23.97;59.46
47280;BME280;34064;44.942;0.008;2023-09-19T09:50:31;98867.50;;;23.87;58.70
47280;BME280;34064;44.942;0.008;2023-09-19T09:53:21;98873.38;;;23.91;58.07
47280;BME280;34064;44.942;0.008;2023-09-19T09:58:27;98864.50;;;24.04;56.95
47280;BME280;34064;44.942;0.008;2023-09-19T10:00:58;98861.38;;;24.13;56.83
47280;BME280;34064;44.942;0.008;2023-09-19T10:03:39;98857.44;;;24.23;56.77
47280;BME280;34064;44.942;0.008;2023-09-19T10:06:14;98860.63;;;24.40;56.40
47280;BME280;34064;44.942;0.008;2023-09-19T10:09:06;98844.34;;;24.40;56.34
47280;BME280;34064;44.942;0.008;2023-09-19T10:11:47;98846.19;;;24.39;55.97
47280;BME280;34064;44.942;0.008;2023-09-19T10:14:26;98849.56;;;24.55;56.22
47280;BME280;34064;44.942;0.008;2023-09-19T10:16:58;98838.53;;;24.70;54.74
47280;BME280;34064;44.942;0.008;2023-09-19T10:19:54;98845.22;;;24.74;53.75
47280;BME280;34064;44.942;0.008;2023-09-19T10:22:26;98837.69;;;24.76;52.54
47280;BME280;34064;44.942;0.008;2023-09-19T10:24:58;98844.38;;;24.80;52.68
47280;BME280;34064;44.942;0.008;2023-09-19T10:27:26;98837.28;;;24.79;52.50
47280;BME280;34064;44.942;0.008;2023-09-19T10:29:56;98832.69;;;24.86;53.20
47280;BME280;34064;44.942;0.008;2023-09-19T10:32:26;98821.78;;;25.00;52.70
47280;BME280;34064;44.942;0.008;2023-09-19T10:34:54;98822.63;;;25.07;51.76
47280;BME280;34064;44.942;0.008;2023-09-19T10:37:23;98816.13;;;25.15;51.24
47280;BME280;34064;44.942;0.008;2023-09-19T10:39:53;98817.16;;;25.20;51.58
47280;BME280;34064;44.942;0.008;2023-09-19T10:42:23;98815.69;;;25.25;51.95
47280;BME280;34064;44.942;0.008;2023-09-19T10:44:55;98808.34;;;25.32;51.95
47280;BME280;34064;44.942;0.008;2023-09-19T10:47:26;98810.00;;;25.46;51.52
47280;BME280;34064;44.942;0.008;2023-09-19T10:49:57;98795.75;;;25.58;50.23
47280;BME280;34064;44.942;0.008;2023-09-19T10:52:26;98796.59;;;25.58;49.00
47280;BME280;34064;44.942;0.008;2023-09-19T10:54:56;98796.75;;;25.63;49.05
47280;BME280;34064;44.942;0.008;2023-09-19T10:57:26;98805.94;;;25.69;49.65
47280;BME280;34064;44.942;0.008;2023-09-19T11:00:08;98799.59;;;25.82;49.37
47280;BME280;34064;44.942;0.008;2023-09-19T11:05:41;98791.78;;;25.99;49.86
47280;BME280;34064;44.942;0.008;2023-09-19T11:08:09;98792.78;;;26.05;49.32
47280;BME280;34064;44.942;0.008;2023-09-19T11:10:48;98789.44;;;26.09;48.37
47280;BME280;34064;44.942;0.008;2023-09-19T11:13:28;98788.75;;;26.21;49.15
47280;BME280;34064;44.942;0.008;2023-09-19T11:27:09;98781.59;;;26.52;46.37
47280;BME280;34064;44.942;0.008;2023-09-19T11:29:40;98773.75;;;26.62;46.72
47280;BME280;34064;44.942;0.008;2023-09-19T11:32:07;98774.28;;;26.77;47.01
47280;BME280;34064;44.942;0.008;2023-09-19T11:40:10;98760.44;;;26.98;46.01
47280;BME280;34064;44.942;0.008;2023-09-19T11:48:24;98747.19;;;27.20;43.21
47280;BME280;34064;44.942;0.008;2023-09-19T11:50:53;98743.41;;;27.21;43.65
47280;BME280;34064;44.942;0.008;2023-09-19T11:53:22;98730.41;;;27.23;40.73
47280;BME280;34064;44.942;0.008;2023-09-19T11:55:49;98743.88;;;27.18;41.83
47280;BME280;34064;44.942;0.008;2023-09-19T11:58:16;98734.47;;;27.32;42.51
47280;BME280;34064;44.942;0.008;2023-09-19T12:00:45;98733.56;;;27.38;41.95
47280;BME280;34064;44.942;0.008;2023-09-19T12:03:13;98732.06;;;27.43;42.60
47280;BME280;34064;44.942;0.008;2023-09-19T12:05:44;98738.72;;;27.47;41.15
47280;BME280;34064;44.942;0.008;2023-09-19T12:08:11;98732.59;;;27.51;40.58
47280;BME280;34064;44.942;0.008;2023-09-19T12:10:48;98731.28;;;27.54;39.95
47280;BME280;34064;44.942;0.008;2023-09-19T12:13:19;98727.66;;;27.60;39.75
47280;BME280;34064;44.942;0.008;2023-09-19T12:15:46;98725.41;;;27.69;40.31
47280;BME280;34064;44.942;0.008;2023-09-19T12:18:28;98725.13;;;27.77;39.60
47280;BME280;34064;44.942;0.008;2023-09-19T12:20:56;98728.66;;;27.78;39.33
47280;BME280;34064;44.942;0.008;2023-09-19T12:23:24;98723.72;;;27.86;39.56
47280;BME280;34064;44.942;0.008;2023-09-19T12:25:52;98720.06;;;27.93;40.04
47280;BME280;34064;44.942;0.008;2023-09-19T12:28:24;98706.00;;;28.08;40.27
47280;BME280;34064;44.942;0.008;2023-09-19T12:30:53;98714.63;;;28.05;39.95
47280;BME280;34064;44.942;0.008;2023-09-19T12:33:21;98718.91;;;28.00;40.27
47280;BME280;34064;44.942;0.008;2023-09-19T12:35:51;98704.16;;;28.01;40.38
47280;BME280;34064;44.942;0.008;2023-09-19T12:38:29;98707.66;;;28.09;40.33
47280;BME280;34064;44.942;0.008;2023-09-19T12:40:59;98694.84;;;28.21;40.52
47280;BME280;34064;44.942;0.008;2023-09-19T12:43:28;98687.25;;;28.35;39.95
47280;BME280;34064;44.942;0.008;2023-09-19T12:45:58;98688.00;;;28.42;39.60
47280;BME280;34064;44.942;0.008;2023-09-19T12:48:26;98682.78;;;28.53;39.77
47280;BME280;34064;44.942;0.008;2023-09-19T12:51:10;98679.78;;;28.54;39.79
47280;BME280;34064;44.942;0.008;2023-09-19T12:53:45;98681.22;;;28.57;39.11
47280;BME280;34064;44.942;0.008;2023-09-19T12:56:16;98679.44;;;28.62;38.72
47280;BME280;34064;44.942;0.008;2023-09-19T12:58:57;98673.50;;;28.66;39.73
47280;BME280;34064;44.942;0.008;2023-09-19T13:01:35;98665.28;;;28.66;39.20
47280;BME280;34064;44.942;0.008;2023-09-19T13:04:16;98665.41;;;28.59;38.76
47280;BME280;34064;44.942;0.008;2023-09-19T13:06:52;98670.41;;;28.62;38.47
47280;BME280;34064;44.942;0.008;2023-09-19T13:09:23;98665.88;;;28.68;38.38
47280;BME280;34064;44.942;0.008;2023-09-19T13:12:00;98657.56;;;28.74;37.91
47280;BME280;34064;44.942;0.008;2023-09-19T13:14:29;98656.75;;;28.74;37.69
47280;BME280;34064;44.942;0.008;2023-09-19T13:17:09;98646.53;;;28.81;38.32
47280;BME280;34064;44.942;0.008;2023-09-19T13:19:51;98649.00;;;28.94;38.28
47280;BME280;34064;44.942;0.008;2023-09-19T13:22:39;98639.91;;;29.06;37.14
47280;BME280;34064;44.942;0.008;2023-09-19T13:25:15;98645.50;;;29.11;36.92
47280;BME280;34064;44.942;0.008;2023-09-19T13:27:49;98638.44;;;29.15;36.68
47280;BME280;34064;44.942;0.008;2023-09-19T13:30:21;98634.25;;;29.24;36.75
47280;BME280;34064;44.942;0.008;2023-09-19T13:32:48;98634.97;;;29.32;36.71
47280;BME280;34064;44.942;0.008;2023-09-19T13:35:16;98633.94;;;29.33;35.93
47280;BME280;34064;44.942;0.008;2023-09-19T13:37:43;98627.34;;;29.34;36.83
47280;BME280;34064;44.942;0.008;2023-09-19T13:40:14;98633.53;;;29.41;36.25
47280;BME280;34064;44.942;0.008;2023-09-19T13:42:40;98628.13;;;29.46;36.62
47280;BME280;34064;44.942;0.008;2023-09-19T13:45:07;98610.97;;;29.51;36.67
47280;BME280;34064;44.942;0.008;2023-09-19T13:47:38;98610.56;;;29.59;36.90
47280;BME280;34064;44.942;0.008;2023-09-19T13:50:05;98607.19;;;29.69;37.57
47280;BME280;34064;44.942;0.008;2023-09-19T13:52:32;98596.44;;;29.79;36.65
47280;BME280;34064;44.942;0.008;2023-09-19T13:55:00;98597.78;;;29.94;36.63
47280;BME280;34064;44.942;0.008;2023-09-19T13:57:27;98587.47;;;30.01;36.86
47280;BME280;34064;44.942;0.008;2023-09-19T13:59:53;98582.16;;;30.11;36.60
47280;BME280;34064;44.942;0.008;2023-09-19T14:02:21;98593.44;;;30.15;35.48
47280;BME280;34064;44.942;0.008;2023-09-19T14:04:51;98587.72;;;30.16;35.83